Terminal Aerodrome Forecast
Issued by NWS Paducah, KY

Home | Current Version | Previous Version | Text Only | Print | Product List | Glossary On
Versions: 1 2 3 4 5 6 7 8 9 10 11 12 13
677
FTUS43 KPAH 241720
TAFEVV
TAF
KEVV 241720Z 2418/2518 20010G20KT P6SM SCT250
     FM250100 20010KT P6SM SCT090 BKN250
     FM251300 35010G15KT P6SM BKN100=

USA.gov is the U.S. government's official web portal to all federal, state and local government web resources and services.